Jamestown Regional Airport
KJMS : now visible

Airfield :











YOU CAN JOIN US ON...

 
LOGIN :

Register | Disclaimer

   EN    FR    IT 

 









Legend :    VFR   Marginal VFR   IFR   Intensive IFR   Very Intensive IFR
Visi :
Ceiling :
>= 8 km
>= 3000ft
5 to 8 km
1000 to 3000 ft
1500m to 5 km
500 to 1000 ft
800 to 1500m
200 to 500 ft
< 800m
< 200 ft
Symbols :   Thunderstorms  Fog  Heavy snow  Heavy precipitations  Wind > 20 kt






- Airport Elevation : 1500 ft
- IATA code : JMS


KJMS - Jamestown Regional

CURRENT METAR :
  • 060456Z AUTO 29005KT 10SM CLR 21/19 A2992 RMK AO2 SLP125 T02110189

EXPIRED METARs :
  • 060356Z AUTO 19007KT 10SM CLR 22/18 A2993 RMK AO2 SLP128 T02220183
  • 060256Z AUTO 17012KT 10SM CLR 24/19 A2993 RMK AO2 SLP127 T02440189 55000

TAF KJMS
Valid from the 06 at 06:00 until the 07 at 06:00 UTC


060535Z 0606/0706 31005KT P6SM SCT060
FM061300 32005KT P6SM SCT040
FM061800 01005KT P6SM SCT040
FM062100 03005KT P6SM SCT050
FM070000 11005KT P6SM SCT050
KZMP FIR / North America



MET'MAP, your aeronautical weather chart ! - Copyright ORBIFLY December 2007 - Disclaimer

ORBIFLY MET'MAP TEAM :

Programming & Development : Alexandra Zaïnal
Concept & original design : Baudouin d'Aumeries
Assistance for programming : Marc-Olivier Méhu
Technical & hardware support : Manuel Goepfert

Contact : metmap@orbifly.com




SOURCES & CREDITS :

   NOAA       Earth
Advisory